Language selection

My Weather Profile Weather Topics  | 

Johnstone Strait: Past 24 Hour Conditions

 

La Perouse Bank - 46206

09:00 AM PST 05 December 2021Buoy position: 48.83N 126.0W
Disclaimer

This table is a summary of hourly weather conditions for the past 24 hours.
Please note that these observations might not always be representative of weather conditions over their associated marine area.

Date / Time
(PST)
Wind(knots) Wave height(m) Wave period(s) Pressure(kPa) Air tempC) Water tempC)
05 December 2021
9:00 E 6 gust 8 1.7 11.0 103.4 5 10
8:00 N 12 gust 13 1.8 11.0 103.4 6 10
7:00 NNW 12 gust 16 1.9 11.0 103.4 6 10
6:00 NNW 13 gust 16 2.0 9.0 103.3 7 10
5:00 NNW 16 gust 17 2.2 9.0 103.3 7 10
4:00 NW 16 gust 19 2.2 10.0 103.3 7 10
3:00 N/A N/A N/A N/A N/A N/A
2:00 NW 17 gust 22 N/A 12.0 103.2 7 10
1:00 NNW 17 gust 22 2.3 12.0 103.1 7 10
0:00 NNW 16 gust 22 2.3 11.0 103.0 7 10
04 December 2021
23:00 NNW 17 gust 22 2.3 12.0 103.0 7 10
22:00 NW 19 gust 22 2.4 12.0 102.9 7 10
21:00 NNW 17 gust 22 2.5 11.0 102.8 7 10
20:00 NW 19 gust 23 2.4 12.0 102.7 7 10
19:00 NW 22 gust 25 2.4 12.0 102.6 8 10
18:00 NNW 19 gust 23 2.2 12.0 102.5 8 10
17:00 NW 19 gust 23 2.2 13.0 102.4 7 10
16:00 NW 17 gust 22 2.0 11.0 102.4 7 10
15:00 NW 17 gust 22 2.1 13.0 102.3 7 10
14:00 NW 17 gust 22 2.2 12.0 102.2 7 10
13:00 NW 13 gust 17 1.9 14.0 102.1 7 10
12:00 NW 10 gust 13 2.1 12.0 102.1 6 10
11:00 NNW 6 gust 10 2.2 12.0 102.0 6 10
10:00 N 6 gust 8 2.2 12.0 102.0 5 10
9:00 N 4 gust 6 2.2 12.0 101.9 5 10

Zoom-in to make a selection

Map of Pacific - Georgia Basin marine weather areas Sentry Shoal - 46131 Halibut Bank - 46146 La Perouse Bank - 46206 Georgia Strait - 46303 English Bay - 46304 Discovery Island Esquimalt Harbour Kelp Reefs Malahat Race Rocks Lightstation Saturna Island Sheringham Point University of Victoria Victoria Gonzales Victoria Int'l Airport Ballenas Islands Campbell River Airport Comox Airport Entrance Island Fanny Island Nanaimo Airport Sisters Islets Estevan Point Port Alberni Tofino Airport Grief Point Howe Sound - Pam Rocks Powell River Airport Sechelt Squamish Airport Point Atkinson Sand Heads Lightstation Tsawwassen Ferry Terminal Vancouver Int'l Airport Vancouver Harbour West Vancouver
Legend:
buoy Buoy
land station Land Station

Pacific - Georgia Basin Area

Another Region

What we are doing

Features

Hello Weather

Hello Weather: our upgraded telephone weather service is here. 1-833-794-3556 or 1-833-79HELLO.

Date modified: